sensor_id;sensor_type;location;lat;lon;timestamp;temperature;humidity
12039;DHT22;6080;48.818;9.526;2023-05-27T03:01:49;11.70;99.90
12039;DHT22;6080;48.818;9.526;2023-05-27T03:04:15;11.60;99.90
12039;DHT22;6080;48.818;9.526;2023-05-27T03:06:42;11.60;99.90
12039;DHT22;6080;48.818;9.526;2023-05-27T03:09:08;11.60;99.90
12039;DHT22;6080;48.818;9.526;2023-05-27T03:11:34;11.60;99.90
12039;DHT22;6080;48.818;9.526;2023-05-27T03:14:00;11.40;99.90
12039;DHT22;6080;48.818;9.526;2023-05-27T03:16:26;11.40;99.90
12039;DHT22;6080;48.818;9.526;2023-05-27T03:18:51;11.40;99.90
12039;DHT22;6080;48.818;9.526;2023-05-27T03:21:17;11.40;99.90
12039;DHT22;6080;48.818;9.526;2023-05-27T03:23:43;11.40;99.90
12039;DHT22;6080;48.818;9.526;2023-05-27T03:26:09;11.40;99.90
12039;DHT22;6080;48.818;9.526;2023-05-27T03:28:35;11.30;99.90
12039;DHT22;6080;48.818;9.526;2023-05-27T03:31:01;11.30;99.90
12039;DHT22;6080;48.818;9.526;2023-05-27T03:33:26;11.20;99.90
12039;DHT22;6080;48.818;9.526;2023-05-27T03:35:52;11.20;99.90
12039;DHT22;6080;48.818;9.526;2023-05-27T03:38:18;11.20;99.90
12039;DHT22;6080;48.818;9.526;2023-05-27T03:40:44;11.20;99.90
12039;DHT22;6080;48.818;9.526;2023-05-27T03:43:09;11.20;99.90
12039;DHT22;6080;48.818;9.526;2023-05-27T03:45:35;11.20;99.90
12039;DHT22;6080;48.818;9.526;2023-05-27T03:48:01;11.20;99.90
12039;DHT22;6080;48.818;9.526;2023-05-27T03:50:27;11.20;99.90
12039;DHT22;6080;48.818;9.526;2023-05-27T03:52:53;11.10;99.90
12039;DHT22;6080;48.818;9.526;2023-05-27T03:55:19;11.20;99.90
12039;DHT22;6080;48.818;9.526;2023-05-27T03:57:46;11.20;99.90
12039;DHT22;6080;48.818;9.526;2023-05-27T04:00:12;11.10;99.90
12039;DHT22;6080;48.818;9.526;2023-05-27T04:02:39;11.30;99.90
12039;DHT22;6080;48.818;9.526;2023-05-27T04:05:05;11.30;99.90
12039;DHT22;6080;48.818;9.526;2023-05-27T04:07:31;11.40;99.90
12039;DHT22;6080;48.818;9.526;2023-05-27T04:09:57;11.40;99.90
12039;DHT22;6080;48.818;9.526;2023-05-27T04:12:23;11.40;99.90
12039;DHT22;6080;48.818;9.526;2023-05-27T04:14:50;11.50;99.90
12039;DHT22;6080;48.818;9.526;2023-05-27T04:17:16;11.50;99.90
12039;DHT22;6080;48.818;9.526;2023-05-27T04:19:43;11.50;99.90
12039;DHT22;6080;48.818;9.526;2023-05-27T04:22:09;11.60;99.90
12039;DHT22;6080;48.818;9.526;2023-05-27T04:24:34;11.60;99.90
12039;DHT22;6080;48.818;9.526;2023-05-27T04:27:00;11.60;99.90
12039;DHT22;6080;48.818;9.526;2023-05-27T04:29:28;11.80;99.90
12039;DHT22;6080;48.818;9.526;2023-05-27T04:31:54;11.80;99.90
12039;DHT22;6080;48.818;9.526;2023-05-27T04:34:22;11.90;99.90
12039;DHT22;6080;48.818;9.526;2023-05-27T04:36:48;12.00;99.90
12039;DHT22;6080;48.818;9.526;2023-05-27T04:39:16;12.00;99.90
12039;DHT22;6080;48.818;9.526;2023-05-27T04:41:42;12.00;99.90
12039;DHT22;6080;48.818;9.526;2023-05-27T04:44:08;12.10;99.90
12039;DHT22;6080;48.818;9.526;2023-05-27T04:46:34;12.20;99.90
12039;DHT22;6080;48.818;9.526;2023-05-27T04:49:00;12.40;99.90
12039;DHT22;6080;48.818;9.526;2023-05-27T04:51:26;12.50;99.90
12039;DHT22;6080;48.818;9.526;2023-05-27T04:53:52;12.60;99.90
12039;DHT22;6080;48.818;9.526;2023-05-27T04:56:19;12.70;99.90
12039;DHT22;6080;48.818;9.526;2023-05-27T04:58:46;12.90;99.90
12039;DHT22;6080;48.818;9.526;2023-05-27T05:01:14;13.10;99.90
12039;DHT22;6080;48.818;9.526;2023-05-27T05:03:46;13.30;99.90
12039;DHT22;6080;48.818;9.526;2023-05-27T05:06:28;13.50;99.90
12039;DHT22;6080;48.818;9.526;2023-05-27T05:08:53;13.90;99.90
12039;DHT22;6080;48.818;9.526;2023-05-27T05:11:19;14.30;99.90
12039;DHT22;6080;48.818;9.526;2023-05-27T05:13:45;14.80;99.90
12039;DHT22;6080;48.818;9.526;2023-05-27T05:16:11;15.20;99.90
12039;DHT22;6080;48.818;9.526;2023-05-27T05:18:37;15.60;99.90
12039;DHT22;6080;48.818;9.526;2023-05-27T05:21:03;16.20;99.90
12039;DHT22;6080;48.818;9.526;2023-05-27T05:23:29;16.50;99.90
12039;DHT22;6080;48.818;9.526;2023-05-27T05:25:55;16.90;99.90
12039;DHT22;6080;48.818;9.526;2023-05-27T05:28:24;17.30;99.90
12039;DHT22;6080;48.818;9.526;2023-05-27T05:30:50;17.70;99.90
12039;DHT22;6080;48.818;9.526;2023-05-27T05:33:16;18.10;99.90
12039;DHT22;6080;48.818;9.526;2023-05-27T05:35:42;18.40;99.90
12039;DHT22;6080;48.818;9.526;2023-05-27T05:38:07;18.60;99.90
12039;DHT22;6080;48.818;9.526;2023-05-27T05:40:33;18.80;99.90
12039;DHT22;6080;48.818;9.526;2023-05-27T05:42:59;19.10;99.90
12039;DHT22;6080;48.818;9.526;2023-05-27T05:45:25;19.40;99.90
12039;DHT22;6080;48.818;9.526;2023-05-27T05:47:51;19.60;99.90
12039;DHT22;6080;48.818;9.526;2023-05-27T05:50:16;19.60;99.90
12039;DHT22;6080;48.818;9.526;2023-05-27T05:52:42;19.50;99.90
12039;DHT22;6080;48.818;9.526;2023-05-27T05:55:08;19.60;99.90
12039;DHT22;6080;48.818;9.526;2023-05-27T05:57:34;19.70;99.90
12039;DHT22;6080;48.818;9.526;2023-05-27T06:00:00;20.00;99.90
12039;DHT22;6080;48.818;9.526;2023-05-27T06:02:26;20.30;99.90
12039;DHT22;6080;48.818;9.526;2023-05-27T06:04:52;20.50;99.90
12039;DHT22;6080;48.818;9.526;2023-05-27T06:07:18;20.50;99.00
12039;DHT22;6080;48.818;9.526;2023-05-27T06:09:44;20.70;98.60
12039;DHT22;6080;48.818;9.526;2023-05-27T06:12:10;20.70;97.20
12039;DHT22;6080;48.818;9.526;2023-05-27T06:14:36;20.10;98.00
12039;DHT22;6080;48.818;9.526;2023-05-27T06:17:01;20.00;97.90
12039;DHT22;6080;48.818;9.526;2023-05-27T06:19:27;19.70;97.90
12039;DHT22;6080;48.818;9.526;2023-05-27T06:21:53;19.40;98.80
12039;DHT22;6080;48.818;9.526;2023-05-27T06:24:19;19.30;97.80
12039;DHT22;6080;48.818;9.526;2023-05-27T06:26:45;19.30;98.90
12039;DHT22;6080;48.818;9.526;2023-05-27T06:29:10;19.40;98.60
12039;DHT22;6080;48.818;9.526;2023-05-27T06:31:36;19.70;98.40
12039;DHT22;6080;48.818;9.526;2023-05-27T06:34:02;20.20;97.60
12039;DHT22;6080;48.818;9.526;2023-05-27T06:36:28;20.60;96.30
12039;DHT22;6080;48.818;9.526;2023-05-27T06:38:55;20.70;95.40
12039;DHT22;6080;48.818;9.526;2023-05-27T06:41:21;20.70;95.40
12039;DHT22;6080;48.818;9.526;2023-05-27T06:43:47;20.80;95.10
12039;DHT22;6080;48.818;9.526;2023-05-27T06:46:13;20.70;95.00
12039;DHT22;6080;48.818;9.526;2023-05-27T06:48:38;20.60;95.50
12039;DHT22;6080;48.818;9.526;2023-05-27T06:51:05;21.00;94.10
12039;DHT22;6080;48.818;9.526;2023-05-27T06:53:31;21.20;94.10
12039;DHT22;6080;48.818;9.526;2023-05-27T06:55:57;21.20;92.80
12039;DHT22;6080;48.818;9.526;2023-05-27T06:58:23;20.90;93.50
12039;DHT22;6080;48.818;9.526;2023-05-27T07:00:49;20.90;93.70
12039;DHT22;6080;48.818;9.526;2023-05-27T07:03:15;20.90;93.90
12039;DHT22;6080;48.818;9.526;2023-05-27T07:05:40;21.20;93.10
12039;DHT22;6080;48.818;9.526;2023-05-27T07:08:06;21.00;93.20
12039;DHT22;6080;48.818;9.526;2023-05-27T07:10:32;20.90;93.00
12039;DHT22;6080;48.818;9.526;2023-05-27T07:12:58;20.80;93.30
12039;DHT22;6080;48.818;9.526;2023-05-27T07:15:25;20.90;93.30
12039;DHT22;6080;48.818;9.526;2023-05-27T07:17:51;20.70;93.10
12039;DHT22;6080;48.818;9.526;2023-05-27T07:20:17;20.90;93.20
12039;DHT22;6080;48.818;9.526;2023-05-27T07:22:42;20.90;93.10
12039;DHT22;6080;48.818;9.526;2023-05-27T07:25:08;21.10;93.70
12039;DHT22;6080;48.818;9.526;2023-05-27T07:27:34;21.40;92.80
12039;DHT22;6080;48.818;9.526;2023-05-27T07:30:00;21.60;92.30
12039;DHT22;6080;48.818;9.526;2023-05-27T07:32:26;21.60;92.00
12039;DHT22;6080;48.818;9.526;2023-05-27T07:34:52;21.70;91.60
12039;DHT22;6080;48.818;9.526;2023-05-27T07:37:18;22.20;91.70
12039;DHT22;6080;48.818;9.526;2023-05-27T07:39:44;22.20;91.00
12039;DHT22;6080;48.818;9.526;2023-05-27T07:42:09;21.70;91.10
12039;DHT22;6080;48.818;9.526;2023-05-27T07:44:35;21.50;91.40
12039;DHT22;6080;48.818;9.526;2023-05-27T07:47:01;21.50;91.60
12039;DHT22;6080;48.818;9.526;2023-05-27T07:49:27;21.90;91.70
12039;DHT22;6080;48.818;9.526;2023-05-27T07:51:53;22.30;90.60
12039;DHT22;6080;48.818;9.526;2023-05-27T07:54:18;22.40;90.60
12039;DHT22;6080;48.818;9.526;2023-05-27T07:56:44;22.40;90.20
12039;DHT22;6080;48.818;9.526;2023-05-27T07:59:10;22.30;90.20
12039;DHT22;6080;48.818;9.526;2023-05-27T08:01:36;22.30;90.40
12039;DHT22;6080;48.818;9.526;2023-05-27T08:04:01;22.30;91.00
12039;DHT22;6080;48.818;9.526;2023-05-27T08:06:27;22.80;90.30
12039;DHT22;6080;48.818;9.526;2023-05-27T08:08:53;22.90;89.60
12039;DHT22;6080;48.818;9.526;2023-05-27T08:11:18;23.30;88.10
12039;DHT22;6080;48.818;9.526;2023-05-27T08:13:45;23.40;87.50
12039;DHT22;6080;48.818;9.526;2023-05-27T08:16:11;23.70;87.20
12039;DHT22;6080;48.818;9.526;2023-05-27T08:18:37;23.50;85.40
12039;DHT22;6080;48.818;9.526;2023-05-27T08:21:02;23.60;85.30
12039;DHT22;6080;48.818;9.526;2023-05-27T08:23:28;23.70;86.20
12039;DHT22;6080;48.818;9.526;2023-05-27T08:25:54;24.30;85.20
12039;DHT22;6080;48.818;9.526;2023-05-27T08:28:20;23.90;84.00
12039;DHT22;6080;48.818;9.526;2023-05-27T08:30:46;23.90;83.80
12039;DHT22;6080;48.818;9.526;2023-05-27T08:33:13;24.10;84.20
12039;DHT22;6080;48.818;9.526;2023-05-27T08:35:38;24.30;83.20
12039;DHT22;6080;48.818;9.526;2023-05-27T08:38:04;24.00;82.30
12039;DHT22;6080;48.818;9.526;2023-05-27T08:40:30;23.20;83.60
12039;DHT22;6080;48.818;9.526;2023-05-27T08:42:56;23.20;85.20
12039;DHT22;6080;48.818;9.526;2023-05-27T08:45:22;23.60;85.60
12039;DHT22;6080;48.818;9.526;2023-05-27T08:47:47;24.40;84.10
12039;DHT22;6080;48.818;9.526;2023-05-27T08:50:14;24.80;81.10
12039;DHT22;6080;48.818;9.526;2023-05-27T08:53:00;25.10;80.50
12039;DHT22;6080;48.818;9.526;2023-05-27T08:55:30;25.10;80.10
12039;DHT22;6080;48.818;9.526;2023-05-27T08:57:57;25.00;79.40
12039;DHT22;6080;48.818;9.526;2023-05-27T09:00:25;25.00;79.00
12039;DHT22;6080;48.818;9.526;2023-05-27T09:02:51;24.90;78.90
12039;DHT22;6080;48.818;9.526;2023-05-27T09:05:17;25.00;80.70
12039;DHT22;6080;48.818;9.526;2023-05-27T09:07:44;25.50;79.00
12039;DHT22;6080;48.818;9.526;2023-05-27T09:10:10;25.70;77.10
12039;DHT22;6080;48.818;9.526;2023-05-27T09:12:36;26.00;76.00
12039;DHT22;6080;48.818;9.526;2023-05-27T09:15:03;25.50;75.10
12039;DHT22;6080;48.818;9.526;2023-05-27T09:17:29;24.70;77.70
12039;DHT22;6080;48.818;9.526;2023-05-27T09:19:55;25.10;77.50
12039;DHT22;6080;48.818;9.526;2023-05-27T09:22:24;25.50;77.00
12039;DHT22;6080;48.818;9.526;2023-05-27T09:24:52;25.40;76.30
12039;DHT22;6080;48.818;9.526;2023-05-27T09:27:23;25.20;76.90
12039;DHT22;6080;48.818;9.526;2023-05-27T09:29:49;25.10;77.40
12039;DHT22;6080;48.818;9.526;2023-05-27T09:32:27;25.40;76.90
12039;DHT22;6080;48.818;9.526;2023-05-27T09:34:56;25.60;77.70
12039;DHT22;6080;48.818;9.526;2023-05-27T09:39:58;26.10;75.90
12039;DHT22;6080;48.818;9.526;2023-05-27T09:42:24;26.50;74.20
12039;DHT22;6080;48.818;9.526;2023-05-27T09:44:50;26.10;74.30
12039;DHT22;6080;48.818;9.526;2023-05-27T09:47:16;25.90;76.20
12039;DHT22;6080;48.818;9.526;2023-05-27T09:49:45;25.70;74.70
12039;DHT22;6080;48.818;9.526;2023-05-27T09:52:14;25.90;75.10
12039;DHT22;6080;48.818;9.526;2023-05-27T09:54:43;25.50;74.20
12039;DHT22;6080;48.818;9.526;2023-05-27T09:57:10;25.40;75.00
12039;DHT22;6080;48.818;9.526;2023-05-27T09:59:37;25.50;74.70
12039;DHT22;6080;48.818;9.526;2023-05-27T10:02:04;26.00;73.70
12039;DHT22;6080;48.818;9.526;2023-05-27T10:04:32;26.20;71.70
12039;DHT22;6080;48.818;9.526;2023-05-27T10:06:59;26.00;71.80
12039;DHT22;6080;48.818;9.526;2023-05-27T10:09:27;26.10;71.60
12039;DHT22;6080;48.818;9.526;2023-05-27T10:11:53;26.50;70.30
12039;DHT22;6080;48.818;9.526;2023-05-27T10:14:20;27.20;70.60
12039;DHT22;6080;48.818;9.526;2023-05-27T10:16:53;27.20;68.10
12039;DHT22;6080;48.818;9.526;2023-05-27T10:19:21;26.50;68.10
12039;DHT22;6080;48.818;9.526;2023-05-27T10:21:47;26.50;68.10
12039;DHT22;6080;48.818;9.526;2023-05-27T10:24:13;26.80;66.80
12039;DHT22;6080;48.818;9.526;2023-05-27T10:26:40;26.60;66.30
12039;DHT22;6080;48.818;9.526;2023-05-27T10:31:33;26.20;67.20
12039;DHT22;6080;48.818;9.526;2023-05-27T10:33:59;25.90;67.90
12039;DHT22;6080;48.818;9.526;2023-05-27T10:36:26;26.20;66.70
12039;DHT22;6080;48.818;9.526;2023-05-27T10:39:14;26.10;65.10
12039;DHT22;6080;48.818;9.526;2023-05-27T10:41:51;26.60;64.90
12039;DHT22;6080;48.818;9.526;2023-05-27T10:47:03;27.40;64.00
12039;DHT22;6080;48.818;9.526;2023-05-27T10:49:34;27.70;64.10
12039;DHT22;6080;48.818;9.526;2023-05-27T10:52:12;28.20;61.80
12039;DHT22;6080;48.818;9.526;2023-05-27T10:54:43;27.40;61.50
12039;DHT22;6080;48.818;9.526;2023-05-27T10:57:11;27.20;62.30
12039;DHT22;6080;48.818;9.526;2023-05-27T10:59:48;27.60;62.00
12039;DHT22;6080;48.818;9.526;2023-05-27T11:02:15;27.60;60.70
12039;DHT22;6080;48.818;9.526;2023-05-27T11:04:41;27.20;60.60
12039;DHT22;6080;48.818;9.526;2023-05-27T11:07:08;27.40;61.70
12039;DHT22;6080;48.818;9.526;2023-05-27T11:09:46;27.90;59.50
12039;DHT22;6080;48.818;9.526;2023-05-27T11:12:19;27.80;59.80
12039;DHT22;6080;48.818;9.526;2023-05-27T11:14:50;27.90;59.70
12039;DHT22;6080;48.818;9.526;2023-05-27T11:17:17;27.50;60.50
12039;DHT22;6080;48.818;9.526;2023-05-27T11:19:43;27.20;59.70
12039;DHT22;6080;48.818;9.526;2023-05-27T11:22:14;27.60;60.00
12039;DHT22;6080;48.818;9.526;2023-05-27T11:24:40;28.00;59.70
12039;DHT22;6080;48.818;9.526;2023-05-27T11:27:13;28.30;58.40
12039;DHT22;6080;48.818;9.526;2023-05-27T11:29:47;27.50;58.40
12039;DHT22;6080;48.818;9.526;2023-05-27T11:32:16;27.30;60.20
12039;DHT22;6080;48.818;9.526;2023-05-27T11:34:44;28.00;58.50
12039;DHT22;6080;48.818;9.526;2023-05-27T11:37:11;28.80;57.10
12039;DHT22;6080;48.818;9.526;2023-05-27T11:39:36;29.20;56.20
12039;DHT22;6080;48.818;9.526;2023-05-27T11:42:05;28.80;56.40
12039;DHT22;6080;48.818;9.526;2023-05-27T11:44:34;28.40;56.80
12039;DHT22;6080;48.818;9.526;2023-05-27T11:47:00;28.10;57.20
12039;DHT22;6080;48.818;9.526;2023-05-27T11:49:28;28.80;57.30
12039;DHT22;6080;48.818;9.526;2023-05-27T11:51:56;29.20;56.30
12039;DHT22;6080;48.818;9.526;2023-05-27T11:54:27;29.60;55.80
12039;DHT22;6080;48.818;9.526;2023-05-27T11:56:55;29.50;56.00
12039;DHT22;6080;48.818;9.526;2023-05-27T11:59:23;28.90;55.50
12039;DHT22;6080;48.818;9.526;2023-05-27T12:01:50;28.10;57.20
12039;DHT22;6080;48.818;9.526;2023-05-27T12:04:17;28.10;58.20
12039;DHT22;6080;48.818;9.526;2023-05-27T12:06:44;28.80;56.60
12039;DHT22;6080;48.818;9.526;2023-05-27T12:09:11;29.70;55.70
12039;DHT22;6080;48.818;9.526;2023-05-27T12:11:37;30.60;53.60
12039;DHT22;6080;48.818;9.526;2023-05-27T12:14:04;31.10;52.70
12039;DHT22;6080;48.818;9.526;2023-05-27T12:16:30;30.80;52.50
12039;DHT22;6080;48.818;9.526;2023-05-27T12:18:57;30.20;52.20
12039;DHT22;6080;48.818;9.526;2023-05-27T12:21:24;30.10;52.80
12039;DHT22;6080;48.818;9.526;2023-05-27T12:23:50;30.80;51.00
12039;DHT22;6080;48.818;9.526;2023-05-27T12:26:16;30.30;51.60
12039;DHT22;6080;48.818;9.526;2023-05-27T12:28:43;30.70;51.30
12039;DHT22;6080;48.818;9.526;2023-05-27T12:31:09;30.90;50.30
12039;DHT22;6080;48.818;9.526;2023-05-27T12:33:35;30.20;47.00
12039;DHT22;6080;48.818;9.526;2023-05-27T12:36:02;30.20;48.40
12039;DHT22;6080;48.818;9.526;2023-05-27T12:38:28;30.20;49.20
12039;DHT22;6080;48.818;9.526;2023-05-27T12:40:54;30.90;48.20
12039;DHT22;6080;48.818;9.526;2023-05-27T12:43:23;31.90;47.20
12039;DHT22;6080;48.818;9.526;2023-05-27T12:45:50;31.20;47.80
12039;DHT22;6080;48.818;9.526;2023-05-27T12:48:16;30.40;48.60
12039;DHT22;6080;48.818;9.526;2023-05-27T12:50:43;30.70;48.80
12039;DHT22;6080;48.818;9.526;2023-05-27T12:53:09;30.60;47.00
12039;DHT22;6080;48.818;9.526;2023-05-27T12:55:36;29.90;46.70
12039;DHT22;6080;48.818;9.526;2023-05-27T12:58:02;29.10;47.50
12039;DHT22;6080;48.818;9.526;2023-05-27T13:00:29;29.30;46.40
12039;DHT22;6080;48.818;9.526;2023-05-27T13:02:54;29.20;46.70
12039;DHT22;6080;48.818;9.526;2023-05-27T13:05:20;29.70;46.50
12039;DHT22;6080;48.818;9.526;2023-05-27T13:08:12;29.90;45.50
12039;DHT22;6080;48.818;9.526;2023-05-27T13:10:38;29.00;44.60
12039;DHT22;6080;48.818;9.526;2023-05-27T13:13:06;29.20;44.60
12039;DHT22;6080;48.818;9.526;2023-05-27T13:15:32;30.00;43.00
12039;DHT22;6080;48.818;9.526;2023-05-27T13:17:58;30.00;44.00
12039;DHT22;6080;48.818;9.526;2023-05-27T13:20:26;29.90;44.60
12039;DHT22;6080;48.818;9.526;2023-05-27T13:22:55;30.10;44.20
12039;DHT22;6080;48.818;9.526;2023-05-27T13:25:26;29.80;43.90
12039;DHT22;6080;48.818;9.526;2023-05-27T13:27:52;30.20;42.80
12039;DHT22;6080;48.818;9.526;2023-05-27T13:30:19;30.10;42.10
12039;DHT22;6080;48.818;9.526;2023-05-27T13:32:45;31.00;41.00
12039;DHT22;6080;48.818;9.526;2023-05-27T13:35:11;30.90;40.00
12039;DHT22;6080;48.818;9.526;2023-05-27T13:37:38;30.90;39.30
12039;DHT22;6080;48.818;9.526;2023-05-27T13:40:05;30.60;40.90
12039;DHT22;6080;48.818;9.526;2023-05-27T13:42:31;30.40;41.70
12039;DHT22;6080;48.818;9.526;2023-05-27T13:44:58;30.50;40.90
12039;DHT22;6080;48.818;9.526;2023-05-27T13:47:27;30.50;39.90
12039;DHT22;6080;48.818;9.526;2023-05-27T13:49:53;30.90;38.80
12039;DHT22;6080;48.818;9.526;2023-05-27T13:52:19;30.90;36.20
12039;DHT22;6080;48.818;9.526;2023-05-27T13:54:45;30.40;35.60
12039;DHT22;6080;48.818;9.526;2023-05-27T13:57:13;29.90;37.80
12039;DHT22;6080;48.818;9.526;2023-05-27T13:59:41;30.20;37.80
12039;DHT22;6080;48.818;9.526;2023-05-27T14:02:07;30.20;38.90
12039;DHT22;6080;48.818;9.526;2023-05-27T14:04:34;30.40;40.20
12039;DHT22;6080;48.818;9.526;2023-05-27T14:07:00;30.00;41.30
12039;DHT22;6080;48.818;9.526;2023-05-27T14:09:26;30.10;40.00
12039;DHT22;6080;48.818;9.526;2023-05-27T14:11:52;30.70;39.70
12039;DHT22;6080;48.818;9.526;2023-05-27T14:14:17;30.70;38.10
12039;DHT22;6080;48.818;9.526;2023-05-27T14:16:43;31.20;38.90
12039;DHT22;6080;48.818;9.526;2023-05-27T14:19:09;31.10;39.80
12039;DHT22;6080;48.818;9.526;2023-05-27T14:21:35;31.30;39.80
12039;DHT22;6080;48.818;9.526;2023-05-27T14:24:01;30.70;40.10
12039;DHT22;6080;48.818;9.526;2023-05-27T14:26:26;31.40;40.10
12039;DHT22;6080;48.818;9.526;2023-05-27T14:28:52;31.70;38.40
12039;DHT22;6080;48.818;9.526;2023-05-27T14:31:18;31.40;38.70
12039;DHT22;6080;48.818;9.526;2023-05-27T14:33:44;32.20;38.30
12039;DHT22;6080;48.818;9.526;2023-05-27T14:36:10;31.70;38.20
12039;DHT22;6080;48.818;9.526;2023-05-27T14:38:36;31.90;39.30
12039;DHT22;6080;48.818;9.526;2023-05-27T14:41:02;32.10;38.70
12039;DHT22;6080;48.818;9.526;2023-05-27T14:43:27;31.20;37.80
12039;DHT22;6080;48.818;9.526;2023-05-27T14:45:53;30.80;38.80
12039;DHT22;6080;48.818;9.526;2023-05-27T14:48:19;30.70;40.40
12039;DHT22;6080;48.818;9.526;2023-05-27T14:50:45;30.60;39.60
12039;DHT22;6080;48.818;9.526;2023-05-27T14:53:10;30.70;39.40
12039;DHT22;6080;48.818;9.526;2023-05-27T14:55:36;30.50;40.30
12039;DHT22;6080;48.818;9.526;2023-05-27T14:58:02;31.20;40.50
12039;DHT22;6080;48.818;9.526;2023-05-27T15:00:32;31.50;40.30
12039;DHT22;6080;48.818;9.526;2023-05-27T15:02:58;31.10;40.90
12039;DHT22;6080;48.818;9.526;2023-05-27T15:05:23;31.10;39.60
12039;DHT22;6080;48.818;9.526;2023-05-27T15:07:49;31.50;40.50
12039;DHT22;6080;48.818;9.526;2023-05-27T15:10:15;31.60;39.60
12039;DHT22;6080;48.818;9.526;2023-05-27T15:12:42;31.10;39.10
12039;DHT22;6080;48.818;9.526;2023-05-27T15:15:12;31.10;40.50
12039;DHT22;6080;48.818;9.526;2023-05-27T15:17:38;30.80;39.80
12039;DHT22;6080;48.818;9.526;2023-05-27T15:20:06;30.30;40.30
12039;DHT22;6080;48.818;9.526;2023-05-27T15:22:33;29.50;40.80
12039;DHT22;6080;48.818;9.526;2023-05-27T15:25:01;29.50;40.80
12039;DHT22;6080;48.818;9.526;2023-05-27T15:27:26;29.90;41.20
12039;DHT22;6080;48.818;9.526;2023-05-27T15:29:52;30.80;41.00
12039;DHT22;6080;48.818;9.526;2023-05-27T15:32:18;30.80;40.60
12039;DHT22;6080;48.818;9.526;2023-05-27T15:34:44;30.40;40.80
12039;DHT22;6080;48.818;9.526;2023-05-27T15:37:09;30.50;41.90
12039;DHT22;6080;48.818;9.526;2023-05-27T15:39:36;31.10;41.10
12039;DHT22;6080;48.818;9.526;2023-05-27T15:42:03;31.60;40.30
12039;DHT22;6080;48.818;9.526;2023-05-27T15:44:28;32.10;39.50
12039;DHT22;6080;48.818;9.526;2023-05-27T15:46:54;31.50;39.50
12039;DHT22;6080;48.818;9.526;2023-05-27T15:49:20;31.50;40.00
12039;DHT22;6080;48.818;9.526;2023-05-27T15:51:46;31.60;40.00
12039;DHT22;6080;48.818;9.526;2023-05-27T15:54:12;31.10;39.80
12039;DHT22;6080;48.818;9.526;2023-05-27T15:56:38;30.70;40.90
12039;DHT22;6080;48.818;9.526;2023-05-27T15:59:04;31.00;40.00
12039;DHT22;6080;48.818;9.526;2023-05-27T16:01:30;31.20;40.40
12039;DHT22;6080;48.818;9.526;2023-05-27T16:03:56;30.80;41.00
12039;DHT22;6080;48.818;9.526;2023-05-27T16:06:22;30.80;41.90
12039;DHT22;6080;48.818;9.526;2023-05-27T16:08:47;30.70;40.80
12039;DHT22;6080;48.818;9.526;2023-05-27T16:11:13;30.20;39.70
12039;DHT22;6080;48.818;9.526;2023-05-27T16:13:39;29.00;41.70
12039;DHT22;6080;48.818;9.526;2023-05-27T16:16:05;28.00;42.90
12039;DHT22;6080;48.818;9.526;2023-05-27T16:18:31;27.30;43.70
12039;DHT22;6080;48.818;9.526;2023-05-27T16:20:57;26.90;44.90
12039;DHT22;6080;48.818;9.526;2023-05-27T16:23:23;26.70;45.60
12039;DHT22;6080;48.818;9.526;2023-05-27T16:25:49;26.70;45.60
12039;DHT22;6080;48.818;9.526;2023-05-27T16:28:19;26.70;45.30
12039;DHT22;6080;48.818;9.526;2023-05-27T16:30:45;26.30;46.30
12039;DHT22;6080;48.818;9.526;2023-05-27T16:33:11;25.90;47.20
12039;DHT22;6080;48.818;9.526;2023-05-27T16:35:37;25.80;48.10
12039;DHT22;6080;48.818;9.526;2023-05-27T16:38:03;25.80;49.10
12039;DHT22;6080;48.818;9.526;2023-05-27T16:40:28;25.80;49.80
12039;DHT22;6080;48.818;9.526;2023-05-27T16:42:55;25.60;48.70
12039;DHT22;6080;48.818;9.526;2023-05-27T16:45:20;25.40;48.90
12039;DHT22;6080;48.818;9.526;2023-05-27T16:47:46;25.10;47.80
12039;DHT22;6080;48.818;9.526;2023-05-27T16:50:12;24.90;49.80
12039;DHT22;6080;48.818;9.526;2023-05-27T16:52:38;24.90;50.20
12039;DHT22;6080;48.818;9.526;2023-05-27T16:55:07;24.70;50.40
12039;DHT22;6080;48.818;9.526;2023-05-27T16:57:34;24.60;49.50
12039;DHT22;6080;48.818;9.526;2023-05-27T17:00:00;24.40;50.20
12039;DHT22;6080;48.818;9.526;2023-05-27T17:02:26;24.40;50.60
12039;DHT22;6080;48.818;9.526;2023-05-27T17:04:53;24.30;50.80
12039;DHT22;6080;48.818;9.526;2023-05-27T17:07:19;24.40;51.00
12039;DHT22;6080;48.818;9.526;2023-05-27T17:09:45;24.30;50.90
12039;DHT22;6080;48.818;9.526;2023-05-27T17:12:12;24.30;51.10
12039;DHT22;6080;48.818;9.526;2023-05-27T17:14:38;24.20;50.80
12039;DHT22;6080;48.818;9.526;2023-05-27T17:17:04;24.10;51.50
12039;DHT22;6080;48.818;9.526;2023-05-27T17:19:31;24.10;51.30
12039;DHT22;6080;48.818;9.526;2023-05-27T17:21:58;24.00;52.00
12039;DHT22;6080;48.818;9.526;2023-05-27T17:24:23;23.90;51.70
12039;DHT22;6080;48.818;9.526;2023-05-27T17:26:49;23.90;52.20
12039;DHT22;6080;48.818;9.526;2023-05-27T17:29:15;23.80;52.10
12039;DHT22;6080;48.818;9.526;2023-05-27T17:31:41;23.70;52.00
12039;DHT22;6080;48.818;9.526;2023-05-27T17:34:07;23.70;52.10
12039;DHT22;6080;48.818;9.526;2023-05-27T17:36:32;23.70;52.50
12039;DHT22;6080;48.818;9.526;2023-05-27T17:38:58;23.90;52.50
12039;DHT22;6080;48.818;9.526;2023-05-27T17:41:24;24.10;52.70
12039;DHT22;6080;48.818;9.526;2023-05-27T17:43:52;24.40;52.60
12039;DHT22;6080;48.818;9.526;2023-05-27T17:46:17;24.60;52.10
12039;DHT22;6080;48.818;9.526;2023-05-27T17:48:43;24.70;51.10
12039;DHT22;6080;48.818;9.526;2023-05-27T17:51:09;24.90;50.90
12039;DHT22;6080;48.818;9.526;2023-05-27T17:53:35;24.90;50.10
12039;DHT22;6080;48.818;9.526;2023-05-27T17:56:01;24.80;50.90
12039;DHT22;6080;48.818;9.526;2023-05-27T17:58:27;24.80;50.30
12039;DHT22;6080;48.818;9.526;2023-05-27T18:00:53;24.70;51.10
12039;DHT22;6080;48.818;9.526;2023-05-27T18:03:19;24.60;50.40
12039;DHT22;6080;48.818;9.526;2023-05-27T18:05:45;24.30;51.10
12039;DHT22;6080;48.818;9.526;2023-05-27T18:08:11;24.10;51.80
12039;DHT22;6080;48.818;9.526;2023-05-27T18:10:37;23.80;52.60
12039;DHT22;6080;48.818;9.526;2023-05-27T18:13:03;23.50;53.00
12039;DHT22;6080;48.818;9.526;2023-05-27T18:15:29;23.30;54.00
12039;DHT22;6080;48.818;9.526;2023-05-27T18:17:55;23.10;54.70
12039;DHT22;6080;48.818;9.526;2023-05-27T18:20:20;22.80;55.00
12039;DHT22;6080;48.818;9.526;2023-05-27T18:22:47;22.80;55.80
12039;DHT22;6080;48.818;9.526;2023-05-27T18:25:13;22.80;56.20
12039;DHT22;6080;48.818;9.526;2023-05-27T18:27:38;22.70;56.20
12039;DHT22;6080;48.818;9.526;2023-05-27T18:30:07;22.70;56.60
12039;DHT22;6080;48.818;9.526;2023-05-27T18:32:44;22.60;57.10
12039;DHT22;6080;48.818;9.526;2023-05-27T18:35:10;22.50;56.90
12039;DHT22;6080;48.818;9.526;2023-05-27T18:37:35;22.30;57.60
12039;DHT22;6080;48.818;9.526;2023-05-27T18:40:01;22.20;58.20
12039;DHT22;6080;48.818;9.526;2023-05-27T18:42:29;22.10;58.20
12039;DHT22;6080;48.818;9.526;2023-05-27T18:44:56;22.00;58.40
12039;DHT22;6080;48.818;9.526;2023-05-27T18:47:22;21.80;58.70
12039;DHT22;6080;48.818;9.526;2023-05-27T18:49:47;21.70;59.80